Time;durP1;ratioP1;P1;durP2;ratioP2;P2;SDS_P1;SDS_P2;PMS_P1;PMS_P2;Temp;Humidity;BMP_temperature;BMP_pressure;BME280_temperature;BME280_humidity;BME280_pressure;Samples;Min_cycle;Max_cycle;Signal;HPM_P1;HPM_P2
2021/07/08 00:00:34;;;;;;;27.73;15.77;;;717.60;1305.60;;;;;;5034384;28;20466;-51
2021/07/08 00:03:01;;;;;;;28.75;15.45;;;717.60;1305.60;;;;;;5032396;28;20017;-51
2021/07/08 00:05:28;;;;;;;31.98;16.77;;;717.60;1305.60;;;;;;5034854;28;20104;-51
2021/07/08 00:07:58;;;;;;;27.88;16.67;;;717.60;1305.60;;;;;;5034869;28;20021;-51
2021/07/08 00:10:29;;;;;;;28.38;17.20;;;717.60;1305.60;;;;;;5034535;28;20047;-51
2021/07/08 00:12:59;;;;;;;32.53;17.83;;;717.50;1305.60;;;;;;5034448;28;20025;-51
2021/07/08 00:15:27;;;;;;;27.25;16.08;;;717.50;1305.60;;;;;;5034642;28;20021;-52
2021/07/08 00:17:54;;;;;;;31.67;17.17;;;717.50;1305.60;;;;;;5034740;28;20025;-52
2021/07/08 00:20:21;;;;;;;27.15;17.10;;;717.30;1331.20;;;;;;5034809;28;20052;-53
2021/07/08 00:22:47;;;;;;;23.45;14.82;;;717.30;1331.20;;;;;;5034388;28;20056;-52
2021/07/08 00:25:17;;;;;;;23.13;16.13;;;717.30;1331.20;;;;;;5034299;28;20057;-51
2021/07/08 00:27:43;;;;;;;25.20;14.32;;;717.30;1331.20;;;;;;5034710;28;20424;-52
2021/07/08 00:30:10;;;;;;;23.40;14.18;;;717.30;1331.20;;;;;;5034734;28;20025;-51
2021/07/08 00:32:37;;;;;;;27.77;15.65;;;717.30;1331.20;;;;;;5034897;28;20045;-61
2021/07/08 00:35:04;;;;;;;19.10;14.45;;;717.20;1331.20;;;;;;5034621;28;20059;-51
2021/07/08 00:37:30;;;;;;;19.85;13.70;;;717.30;1331.20;;;;;;5035696;28;20112;-51
2021/07/08 00:39:56;;;;;;;26.80;15.93;;;717.30;1331.20;;;;;;5034846;28;20155;-53
2021/07/08 00:42:22;;;;;;;21.83;13.30;;;717.20;1331.20;;;;;;5034479;28;20603;-51
2021/07/08 00:44:48;;;;;;;26.88;17.17;;;717.20;1331.20;;;;;;5034747;28;20029;-62
2021/07/08 00:47:14;;;;;;;35.50;17.90;;;717.20;1356.80;;;;;;5034710;28;20075;-51
2021/07/08 00:49:40;;;;;;;32.25;17.30;;;717.20;1356.80;;;;;;5034313;28;20482;-51
2021/07/08 00:52:06;;;;;;;29.70;17.00;;;717.10;1356.80;;;;;;5034258;28;20553;-51
2021/07/08 00:54:33;;;;;;;23.85;13.30;;;717.00;1356.80;;;;;;5034322;28;20544;-52
2021/07/08 00:56:59;;;;;;;22.95;14.15;;;717.00;1356.80;;;;;;5034543;28;20053;-62
2021/07/08 00:59:25;;;;;;;21.77;13.13;;;717.00;1356.80;;;;;;5034504;28;20052;-51
2021/07/08 01:01:53;;;;;;;18.55;13.18;;;716.90;1356.80;;;;;;5034158;28;20026;-62
2021/07/08 01:04:19;;;;;;;27.88;14.43;;;717.00;1356.80;;;;;;5034425;28;20060;-51
2021/07/08 01:06:45;;;;;;;22.75;13.93;;;717.00;1356.80;;;;;;5034050;28;20057;-59
2021/07/08 01:09:13;;;;;;;26.63;14.02;;;717.00;1356.80;;;;;;5033894;28;20064;-62
2021/07/08 01:11:39;;;;;;;25.48;13.75;;;717.00;1356.80;;;;;;5034216;28;20096;-51
2021/07/08 01:14:08;;;;;;;22.77;13.68;;;717.00;1356.80;;;;;;5033871;28;20057;-52
2021/07/08 01:16:34;;;;;;;38.60;12.85;;;717.00;1356.80;;;;;;5034058;28;20057;-51
2021/07/08 01:19:02;;;;;;;18.20;13.35;;;717.00;1356.80;;;;;;5033886;28;20060;-51
2021/07/08 01:21:37;;;;;;;18.45;12.93;;;717.00;1356.80;;;;;;5016132;28;20068;-51
2021/07/08 01:24:05;;;;;;;16.73;12.50;;;717.00;1356.80;;;;;;5033777;28;20028;-52
2021/07/08 01:26:31;;;;;;;18.83;12.23;;;717.00;1356.80;;;;;;5034031;28;20033;-51
2021/07/08 01:28:57;;;;;;;22.42;13.77;;;716.90;1356.80;;;;;;5033956;28;20033;-51
2021/07/08 01:31:24;;;;;;;28.05;15.40;;;716.80;1356.80;;;;;;5033570;28;20025;-51
2021/07/08 01:33:51;;;;;;;26.45;16.50;;;716.80;1356.80;;;;;;5033620;28;20390;-51
2021/07/08 01:36:18;;;;;;;26.80;17.52;;;716.80;1382.40;;;;;;5033652;28;20025;-51
2021/07/08 01:38:44;;;;;;;28.48;15.80;;;692.10;1356.80;;;;;;5033542;28;20525;-52
2021/07/08 01:41:10;;;;;;;23.55;15.18;;;692.10;1356.80;;;;;;5033900;28;20390;-51
2021/07/08 01:43:38;;;;;;;23.58;14.57;;;692.10;1356.80;;;;;;5033470;28;20021;-51
2021/07/08 01:46:05;;;;;;;21.58;14.52;;;692.00;1356.80;;;;;;5033469;28;20030;-52
2021/07/08 01:48:31;;;;;;;29.90;16.00;;;692.00;1356.80;;;;;;5033447;28;20032;-51
2021/07/08 01:50:58;;;;;;;26.00;16.33;;;692.00;1356.80;;;;;;5033236;28;20025;-52
2021/07/08 01:53:24;;;;;;;31.00;16.05;;;692.10;1356.80;;;;;;5032970;28;20072;-52
2021/07/08 01:55:50;;;;;;;26.88;17.20;;;692.10;1356.80;;;;;;5033658;28;20026;-51
2021/07/08 01:58:16;;;;;;;29.25;17.30;;;692.10;1356.80;;;;;;5033846;28;20036;-51
2021/07/08 02:00:41;;;;;;;24.92;17.17;;;692.00;1356.80;;;;;;5033335;28;20382;-52
2021/07/08 02:03:07;;;;;;;28.60;18.25;;;692.00;1356.80;;;;;;5033299;28;20021;-62
2021/07/08 02:05:33;;;;;;;33.30;20.05;;;692.10;1356.80;;;;;;5033297;28;20382;-51
2021/07/08 02:07:59;;;;;;;31.63;20.75;;;692.00;1382.40;;;;;;5033298;28;20071;-51
2021/07/08 02:10:25;;;;;;;41.17;22.20;;;692.00;1382.40;;;;;;5033047;28;20068;-51
2021/07/08 02:12:51;;;;;;;32.42;22.00;;;691.90;1382.40;;;;;;5033091;28;20033;-51
2021/07/08 02:15:17;;;;;;;44.53;22.20;;;691.80;1382.40;;;;;;5033520;28;20109;-51
2021/07/08 02:17:43;;;;;;;40.00;22.83;;;691.80;1408.00;;;;;;5033154;28;20057;-51
2021/07/08 02:20:13;;;;;;;36.30;22.55;;;691.70;1408.00;;;;;;5033453;28;20025;-51
2021/07/08 02:22:39;;;;;;;37.38;22.17;;;691.70;1408.00;;;;;;5035119;28;20467;-51
2021/07/08 02:25:07;;;;;;;31.33;20.15;;;691.70;1408.00;;;;;;5019397;28;20045;-51
2021/07/08 02:27:36;;;;;;;43.50;22.30;;;;;;;;;;5037036;28;20029;-51
2021/07/08 02:30:06;;;;;;;35.10;21.23;;;691.80;1408.00;;;;;;5036486;28;20037;-51
2021/07/08 02:32:32;;;;;;;33.17;19.67;;;691.60;1433.60;;;;;;5036563;28;20478;-61
2021/07/08 02:34:58;;;;;;;35.63;20.70;;;691.60;1433.60;;;;;;5036508;28;20022;-51
2021/07/08 02:37:24;;;;;;;37.33;21.85;;;691.50;1433.60;;;;;;5036631;28;20068;-51
2021/07/08 02:39:49;;;;;;;36.85;22.55;;;691.50;1433.60;;;;;;5036868;28;20022;-62
2021/07/08 02:42:15;;;;;;;40.08;21.17;;;691.40;1433.60;;;;;;5037082;28;20033;-51
2021/07/08 02:44:41;;;;;;;37.83;20.15;;;691.40;1408.00;;;;;;5036996;28;20363;-51
2021/07/08 02:47:07;;;;;;;37.05;20.05;;;691.40;1459.20;;;;;;5036936;28;20025;-51
2021/07/08 02:49:33;;;;;;;32.50;19.88;;;691.40;1408.00;;;;;;5037115;28;20022;-52
2021/07/08 02:51:59;;;;;;;33.13;19.70;;;691.30;1433.60;;;;;;5036515;28;20091;-62
2021/07/08 02:54:25;;;;;;;38.75;21.00;;;691.40;1433.60;;;;;;5036884;28;20022;-51
2021/07/08 02:56:51;;;;;;;32.35;18.20;;;691.40;1433.60;;;;;;5036478;28;20036;-62
2021/07/08 02:59:17;;;;;;;33.50;18.65;;;691.40;1408.00;;;;;;5036433;28;20028;-51
2021/07/08 03:01:43;;;;;;;34.50;20.25;;;691.40;1433.60;;;;;;5036695;28;20037;-59
2021/07/08 03:04:08;;;;;;;37.35;20.35;;;691.40;1408.00;;;;;;5036370;28;20048;-62
2021/07/08 03:06:34;;;;;;;40.25;20.65;;;691.40;1408.00;;;;;;5036352;28;20029;-51
2021/07/08 03:09:01;;;;;;;30.90;18.95;;;691.40;1433.60;;;;;;5036128;28;20402;-51
2021/07/08 03:11:27;;;;;;;35.80;20.75;;;691.40;1408.00;;;;;;5036216;28;20038;-51
2021/07/08 03:13:53;;;;;;;34.72;20.58;;;691.40;1408.00;;;;;;5036162;28;20017;-52
2021/07/08 03:16:19;;;;;;;37.53;20.73;;;691.40;1408.00;;;;;;5036454;28;20029;-51
2021/07/08 03:18:45;;;;;;;27.67;18.42;;;691.40;1408.00;;;;;;5036394;28;20021;-62
2021/07/08 03:21:11;;;;;;;31.98;19.55;;;691.40;1433.60;;;;;;5036094;28;20517;-50
2021/07/08 03:23:36;;;;;;;42.80;22.38;;;691.30;1433.60;;;;;;5036077;28;20126;-62
2021/07/08 03:26:03;;;;;;;40.38;23.00;;;691.30;1433.60;;;;;;5035937;28;20033;-53
2021/07/08 03:28:29;;;;;;;39.92;21.65;;;691.30;1433.60;;;;;;5035959;28;20505;-61
2021/07/08 03:30:55;;;;;;;47.92;27.23;;;691.30;1433.60;;;;;;5035817;28;20478;-51
2021/07/08 03:33:21;;;;;;;50.28;28.23;;;691.30;1433.60;;;;;;5035088;28;20029;-50
2021/07/08 03:35:47;;;;;;;48.42;24.58;;;691.20;1433.60;;;;;;5035720;28;20031;-61
2021/07/08 03:38:13;;;;;;;64.63;39.47;;;691.20;1433.60;;;;;;5035735;28;20112;-51
2021/07/08 03:40:39;;;;;;;58.22;31.92;;;691.20;1433.60;;;;;;5036038;28;20026;-63
2021/07/08 03:43:05;;;;;;;59.42;31.90;;;691.20;1433.60;;;;;;5035641;28;20458;-52
2021/07/08 03:45:31;;;;;;;55.63;31.58;;;691.20;1433.60;;;;;;5035587;28;20028;-62
2021/07/08 03:47:58;;;;;;;75.05;29.83;;;691.20;1433.60;;;;;;5035887;28;20052;-63
2021/07/08 03:50:24;;;;;;;69.20;30.50;;;691.20;1433.60;;;;;;5035844;28;20040;-51
2021/07/08 03:52:50;;;;;;;62.08;30.27;;;691.20;1433.60;;;;;;5035473;28;20033;-63
2021/07/08 03:55:19;;;;;;;47.45;27.67;;;691.20;1433.60;;;;;;5035531;28;20031;-52
2021/07/08 03:57:57;;;;;;;61.13;30.50;;;691.20;1433.60;;;;;;5035623;28;20113;-63
2021/07/08 04:00:38;;;;;;;45.78;27.42;;;691.20;1433.60;;;;;;5035665;28;20021;-51
2021/07/08 04:03:10;;;;;;;50.78;26.25;;;666.50;1433.60;;;;;;5035653;28;20044;-51
2021/07/08 04:05:36;;;;;;;46.03;25.08;;;666.50;1433.60;;;;;;5035399;28;20029;-62
2021/07/08 04:08:04;;;;;;;51.70;26.30;;;666.50;1433.60;;;;;;5035190;28;20026;-62
2021/07/08 04:10:30;;;;;;;68.13;25.55;;;691.20;1459.20;;;;;;5034981;28;20564;-62
2021/07/08 04:12:57;;;;;;;62.72;25.60;;;691.20;1433.60;;;;;;5035322;28;20045;-50
2021/07/08 04:15:23;;;;;;;56.85;26.45;;;691.30;1433.60;;;;;;5035351;28;20025;-51
2021/07/08 04:17:49;;;;;;;58.47;25.38;;;691.30;1433.60;;;;;;5035029;28;20030;-62
2021/07/08 04:20:18;;;;;;;53.30;25.55;;;691.30;1433.60;;;;;;5035308;28;20025;-51
2021/07/08 04:22:46;;;;;;;54.20;26.92;;;691.30;1433.60;;;;;;5034887;28;20477;-62
2021/07/08 04:25:12;;;;;;;57.00;26.67;;;691.30;1408.00;;;;;;5034805;28;20493;-62
2021/07/08 04:27:38;;;;;;;58.30;26.13;;;691.40;1433.60;;;;;;5035117;28;20095;-50
2021/07/08 04:30:06;;;;;;;49.92;24.63;;;691.40;1408.00;;;;;;5034774;28;20378;-51
2021/07/08 04:32:33;;;;;;;51.63;25.52;;;691.40;1408.00;;;;;;5035384;28;20433;-50
2021/07/08 04:34:59;;;;;;;54.35;24.38;;;691.50;1408.00;;;;;;5034773;28;20018;-50
2021/07/08 04:37:25;;;;;;;47.40;21.45;;;691.50;1408.00;;;;;;5034589;28;20496;-50
2021/07/08 04:39:52;;;;;;;44.28;20.90;;;691.50;1408.00;;;;;;5034570;28;20028;-62
2021/07/08 04:42:19;;;;;;;43.10;20.35;;;691.60;1408.00;;;;;;5034467;28;20029;-50
2021/07/08 04:44:45;;;;;;;43.63;19.77;;;691.60;1408.00;;;;;;5034451;28;20071;-62
2021/07/08 04:47:12;;;;;;;38.17;20.15;;;691.70;1408.00;;;;;;5034470;28;20061;-50
2021/07/08 04:49:38;;;;;;;36.88;21.80;;;691.80;1433.60;;;;;;5034645;28;20049;-62
2021/07/08 04:52:05;;;;;;;33.75;20.25;;;691.80;1433.60;;;;;;5034562;28;20049;-52
2021/07/08 04:54:31;;;;;;;50.55;22.17;;;691.80;1408.00;;;;;;5034269;28;20033;-51
2021/07/08 04:56:57;;;;;;;38.50;20.77;;;691.80;1408.00;;;;;;5034564;28;20033;-52
2021/07/08 04:59:23;;;;;;;43.45;20.90;;;691.80;1408.00;;;;;;5034216;28;20390;-51
2021/07/08 05:01:49;;;;;;;41.70;21.35;;;691.90;1433.60;;;;;;5034207;28;20025;-62
2021/07/08 05:04:15;;;;;;;33.40;21.73;;;691.80;1459.20;;;;;;5034123;28;20030;-51
2021/07/08 05:06:41;;;;;;;45.85;24.35;;;691.90;1433.60;;;;;;5034113;28;20018;-50
2021/07/08 05:09:06;;;;;;;43.53;22.85;;;691.80;1459.20;;;;;;5033879;28;20049;-50
2021/07/08 05:11:32;;;;;;;43.45;25.73;;;691.90;1459.20;;;;;;5033866;28;20037;-51
2021/07/08 05:13:58;;;;;;;52.45;25.63;;;691.90;1459.20;;;;;;5033903;28;20033;-50
2021/07/08 05:16:24;;;;;;;39.58;20.65;;;691.90;1433.60;;;;;;5034299;28;20025;-50
2021/07/08 05:18:50;;;;;;;41.00;21.27;;;692.00;1433.60;;;;;;5034196;28;20033;-62
2021/07/08 05:21:16;;;;;;;58.97;22.95;;;692.00;1459.20;;;;;;5034126;28;20414;-51
2021/07/08 05:23:42;;;;;;;70.32;23.58;;;692.00;1433.60;;;;;;5033870;28;20083;-50
2021/07/08 05:26:08;;;;;;;114.30;26.42;;;692.00;1433.60;;;;;;5034088;28;20159;-51
2021/07/08 05:28:35;;;;;;;75.65;25.25;;;692.10;1433.60;;;;;;5034095;28;20033;-51
2021/07/08 05:31:01;;;;;;;98.28;26.38;;;692.10;1433.60;;;;;;5033947;28;20363;-50
2021/07/08 05:33:26;;;;;;;65.30;26.13;;;716.80;1459.20;;;;;;5033593;28;20087;-51
2021/07/08 05:35:52;;;;;;;63.47;23.45;;;716.80;1484.80;;;;;;5033699;28;20021;-56
2021/07/08 05:38:18;;;;;;;127.53;26.17;;;716.90;1459.20;;;;;;5033688;28;20478;-50
2021/07/08 05:40:44;;;;;;;93.75;21.80;;;716.90;1459.20;;;;;;5033868;28;20061;-62
2021/07/08 05:43:10;;;;;;;324.77;32.63;;;716.90;1459.20;;;;;;5033553;28;20021;-50
2021/07/08 05:45:37;;;;;;;114.90;22.55;;;716.90;1433.60;;;;;;5033738;28;20032;-62
2021/07/08 05:48:03;;;;;;;222.50;25.90;;;717.00;1459.20;;;;;;5033800;28;20120;-51
2021/07/08 05:50:29;;;;;;;164.80;27.00;;;717.00;1433.60;;;;;;5034010;28;20082;-57
2021/07/08 05:52:55;;;;;;;177.80;25.90;;;717.00;1459.20;;;;;;5033614;28;20033;-51
2021/07/08 05:55:21;;;;;;;100.63;22.52;;;717.10;1433.60;;;;;;5033724;28;20028;-50
2021/07/08 05:57:47;;;;;;;147.32;21.95;;;717.10;1459.20;;;;;;5032673;28;20033;-62
2021/07/08 06:00:18;;;;;;;45.85;13.98;;;717.20;1433.60;;;;;;5033453;28;20057;-51
2021/07/08 06:02:44;;;;;;;1542.30;133.65;;;717.20;1433.60;;;;;;5033560;28;20500;-61
2021/07/08 06:05:11;;;;;;;1039.25;92.28;;;717.20;1433.60;;;;;;5033278;28;20164;-51
2021/07/08 06:07:37;;;;;;;276.38;30.70;;;717.30;1408.00;;;;;;5033279;28;20025;-50
2021/07/08 06:10:07;;;;;;;148.40;25.58;;;717.40;1408.00;;;;;;5033002;28;20191;-51
2021/07/08 06:12:34;;;;;;;104.85;21.05;;;717.50;1408.00;;;;;;5033439;28;20489;-50
2021/07/08 06:15:00;;;;;;;76.00;18.15;;;717.50;1408.00;;;;;;5033452;28;20026;-50
2021/07/08 06:17:26;;;;;;;67.10;17.70;;;717.60;1408.00;;;;;;5033200;28;20496;-50
2021/07/08 06:19:53;;;;;;;59.35;17.95;;;717.60;1408.00;;;;;;5033172;28;20631;-51
2021/07/08 06:22:19;;;;;;;62.80;16.33;;;717.70;1408.00;;;;;;5033379;28;20034;-50
2021/07/08 06:24:45;;;;;;;52.53;17.08;;;742.40;1408.00;;;;;;5033397;28;20052;-51
2021/07/08 06:27:11;;;;;;;86.88;17.90;;;742.50;1408.00;;;;;;5033348;28;20474;-52
2021/07/08 06:29:37;;;;;;;102.63;17.17;;;742.50;1408.00;;;;;;5033027;28;20029;-50
2021/07/08 06:32:03;;;;;;;101.90;18.08;;;742.50;1408.00;;;;;;5032988;28;20041;-51
2021/07/08 06:34:29;;;;;;;32.13;11.05;;;742.60;1408.00;;;;;;5032959;28;20056;-51
2021/07/08 06:36:55;;;;;;;56.40;13.27;;;742.70;1382.40;;;;;;5033058;28;20026;-51
2021/07/08 06:39:21;;;;;;;46.72;14.20;;;742.90;1382.40;;;;;;5033012;28;20466;-51
2021/07/08 06:41:46;;;;;;;37.75;13.13;;;742.90;1382.40;;;;;;5033322;28;20087;-51
2021/07/08 06:44:12;;;;;;;45.25;16.08;;;743.00;1382.40;;;;;;5033197;28;20045;-51
2021/07/08 06:46:38;;;;;;;41.15;15.70;;;743.10;1356.80;;;;;;5032791;28;20382;-51
2021/07/08 06:49:04;;;;;;;28.42;14.05;;;743.20;1356.80;;;;;;5032769;28;20351;-51
2021/07/08 06:51:30;;;;;;;40.35;14.57;;;743.30;1356.80;;;;;;5032301;28;20028;-51
2021/07/08 06:53:57;;;;;;;30.30;14.80;;;768.10;1356.80;;;;;;5032918;28;20038;-50
2021/07/08 06:56:24;;;;;;;28.73;14.60;;;768.10;1331.20;;;;;;5031925;28;20033;-51
2021/07/08 06:58:50;;;;;;;26.52;14.23;;;768.20;1331.20;;;;;;5032574;28;20039;-51
2021/07/08 07:01:19;;;;;;;32.33;14.20;;;768.30;1331.20;;;;;;5014667;28;20474;-50
2021/07/08 07:03:45;;;;;;;29.48;14.95;;;768.40;1331.20;;;;;;5032305;28;20029;-50
2021/07/08 07:06:11;;;;;;;28.40;13.55;;;768.40;1331.20;;;;;;5032294;28;20025;-51
2021/07/08 07:08:37;;;;;;;23.95;13.05;;;768.50;1331.20;;;;;;5033927;28;20018;-50
2021/07/08 07:11:03;;;;;;;28.85;12.93;;;768.50;1331.20;;;;;;5035413;28;20041;-51
2021/07/08 07:13:29;;;;;;;26.80;13.23;;;768.60;1331.20;;;;;;5032878;28;20037;-51
2021/07/08 07:15:55;;;;;;;20.15;12.77;;;768.60;1305.60;;;;;;5034933;28;20024;-51
2021/07/08 07:18:21;;;;;;;26.67;12.52;;;768.70;1305.60;;;;;;5035698;28;20061;-51
2021/07/08 07:20:47;;;;;;;30.85;13.63;;;768.70;1305.60;;;;;;5035922;28;20022;-51
2021/07/08 07:23:12;;;;;;;32.10;13.43;;;768.80;1305.60;;;;;;5035606;28;20509;-58
2021/07/08 07:25:41;;;;;;;20.65;11.95;;;768.90;1305.60;;;;;;5033470;28;20072;-62
2021/07/08 07:28:10;;;;;;;27.00;11.55;;;768.90;1305.60;;;;;;5035631;28;20029;-52
2021/07/08 07:30:37;;;;;;;19.38;10.23;;;793.60;1331.20;;;;;;5036103;28;20053;-61
2021/07/08 07:33:03;;;;;;;21.30;9.50;;;793.70;1331.20;;;;;;5035829;28;20039;-51
2021/07/08 07:35:29;;;;;;;22.40;10.65;;;793.80;1305.60;;;;;;5035662;28;20021;-52
2021/07/08 07:37:56;;;;;;;25.15;10.13;;;793.80;1305.60;;;;;;5035261;28;20541;-59
2021/07/08 07:40:22;;;;;;;24.45;9.38;;;794.00;1305.60;;;;;;5035488;28;20351;-50
2021/07/08 07:42:49;;;;;;;22.30;10.57;;;794.10;1305.60;;;;;;5035733;28;20023;-51
2021/07/08 07:45:15;;;;;;;23.33;10.07;;;794.10;1305.60;;;;;;5035630;28;20026;-51
2021/07/08 07:47:41;;;;;;;25.23;9.82;;;794.20;1280.00;;;;;;5035616;28;20100;-51
2021/07/08 07:50:08;;;;;;;13.15;9.68;;;794.30;1280.00;;;;;;5035645;28;20025;-51
2021/07/08 07:52:34;;;;;;;16.85;9.32;;;794.30;1280.00;;;;;;5017612;28;20482;-50
2021/07/08 07:55:01;;;;;;;15.85;8.95;;;794.30;1280.00;;;;;;5035209;28;20014;-63
2021/07/08 07:57:27;;;;;;;16.00;9.23;;;794.30;1280.00;;;;;;5035268;28;20115;-52
2021/07/08 07:59:52;;;;;;;20.17;9.00;;;794.30;1280.00;;;;;;5036420;28;20080;-52
2021/07/08 08:02:19;;;;;;;17.65;8.93;;;794.30;1280.00;;;;;;5035367;28;20537;-51
2021/07/08 08:04:53;;;;;;;15.00;9.25;;;794.30;1254.40;;;;;;5035215;28;20010;-51
2021/07/08 08:10:05;;;;;;;15.05;8.30;;;794.50;1254.40;;;;;;5035168;28;20052;-51
2021/07/08 08:12:32;;;;;;;18.50;8.55;;;819.30;1254.40;;;;;;5034993;28;20064;-50
2021/07/08 08:14:58;;;;;;;12.93;8.60;;;819.20;1228.80;;;;;;5035136;28;20032;-50
2021/07/08 08:17:24;;;;;;;21.48;8.27;;;819.40;1228.80;;;;;;5035076;28;20029;-50
2021/07/08 08:19:49;;;;;;;91.63;49.15;;;819.40;1228.80;;;;;;5034103;28;20076;-52
2021/07/08 08:22:17;;;;;;;42.80;20.20;;;819.50;1228.80;;;;;;5034380;28;20056;-51
2021/07/08 08:24:44;;;;;;;47.47;23.92;;;819.50;1228.80;;;;;;5034892;28;20022;-61
2021/07/08 08:27:10;;;;;;;60.00;32.25;;;819.50;1228.80;;;;;;5034470;28;20025;-62
2021/07/08 08:29:36;;;;;;;69.13;37.42;;;819.50;1228.80;;;;;;5034614;28;20080;-51
2021/07/08 08:32:02;;;;;;;54.58;30.70;;;819.50;1228.80;;;;;;5015688;28;20047;-61
2021/07/08 08:34:28;;;;;;;51.13;25.70;;;819.40;1228.80;;;;;;5034809;28;20052;-62
2021/07/08 08:36:55;;;;;;;41.03;21.80;;;819.40;1228.80;;;;;;5034518;28;20099;-63
2021/07/08 08:39:21;;;;;;;47.92;27.13;;;819.40;1228.80;;;;;;5034482;28;20026;-62
2021/07/08 08:41:47;;;;;;;37.35;20.73;;;819.20;1203.20;;;;;;5034215;28;20035;-62
2021/07/08 08:44:13;;;;;;;37.17;19.17;;;819.40;1203.20;;;;;;5034458;28;20025;-62
2021/07/08 08:46:39;;;;;;;24.77;10.43;;;819.40;1228.80;;;;;;5033593;28;20425;-49
2021/07/08 08:49:06;;;;;;;44.45;16.35;;;819.40;1177.60;;;;;;5032673;28;20017;-51
2021/07/08 08:51:32;;;;;;;44.22;15.60;;;819.40;1203.20;;;;;;5033805;28;20071;-50
2021/07/08 08:53:58;;;;;;;47.92;17.33;;;819.40;1203.20;;;;;;5033807;28;20091;-50
2021/07/08 08:56:25;;;;;;;37.35;14.00;;;819.40;1203.20;;;;;;5033862;28;20028;-56
2021/07/08 08:58:50;;;;;;;33.70;12.95;;;819.40;1203.20;;;;;;5033834;28;20029;-62
2021/07/08 09:01:17;;;;;;;30.00;14.02;;;819.40;1203.20;;;;;;5033598;28;20021;-51
2021/07/08 09:03:45;;;;;;;38.00;13.85;;;819.40;1203.20;;;;;;5033838;28;20456;-61
2021/07/08 09:06:13;;;;;;;21.98;12.13;;;819.40;1152.00;;;;;;5033562;28;20021;-62
2021/07/08 09:08:44;;;;;;;184.80;17.85;;;819.40;1152.00;;;;;;5033683;28;20021;-61
2021/07/08 09:11:22;;;;;;;35.75;11.60;;;819.40;1203.20;;;;;;5033836;28;20442;-53
2021/07/08 09:14:02;;;;;;;26.50;9.93;;;819.40;1203.20;;;;;;5031688;28;20029;-66
2021/07/08 09:16:34;;;;;;;28.17;10.88;;;819.40;1203.20;;;;;;5032095;28;20026;-51
2021/07/08 09:19:05;;;;;;;;;;;819.40;1203.20;;;;;;5034104;28;20484;-54
2021/07/08 09:21:34;;;;;;;39.10;10.43;;;819.40;1203.20;;;;;;5033822;28;20340;-61
2021/07/08 09:24:10;;;;;;;42.65;9.48;;;819.30;1203.20;;;;;;5033374;28;20028;-51
2021/07/08 09:26:39;;;;;;;30.88;11.50;;;819.20;1203.20;;;;;;5033415;28;20025;-50
2021/07/08 09:29:06;;;;;;;26.83;9.68;;;819.20;1203.20;;;;;;5030830;28;20025;-51
2021/07/08 09:31:33;;;;;;;36.83;9.60;;;819.20;1203.20;;;;;;5032328;28;20041;-51
2021/07/08 09:34:13;;;;;;;27.95;9.43;;;819.20;1203.20;;;;;;5033160;28;20470;-51
2021/07/08 09:36:39;;;;;;;22.48;7.70;;;819.20;1203.20;;;;;;5033173;28;20025;-52
2021/07/08 09:39:07;;;;;;;22.52;8.55;;;819.20;1203.20;;;;;;5033062;28;20405;-52
2021/07/08 09:41:33;;;;;;;21.85;8.00;;;819.30;1177.60;;;;;;5015815;28;20029;-50
2021/07/08 09:43:59;;;;;;;18.05;8.02;;;819.20;1177.60;;;;;;5034159;28;20036;-51
2021/07/08 09:46:36;;;;;;;16.23;7.15;;;819.20;1177.60;;;;;;5033406;28;20025;-51
2021/07/08 09:49:09;;;;;;;19.58;7.45;;;819.20;1177.60;;;;;;5033190;28;20044;-53
2021/07/08 09:51:36;;;;;;;18.92;7.88;;;819.20;1177.60;;;;;;5032918;28;20035;-52
2021/07/08 09:54:26;;;;;;;19.02;7.80;;;819.20;1177.60;;;;;;5033218;28;20022;-52
2021/07/08 09:56:57;;;;;;;13.52;6.68;;;819.20;1177.60;;;;;;5031376;28;20026;-51
2021/07/08 09:59:35;;;;;;;11.90;6.95;;;819.20;1177.60;;;;;;5032951;28;20076;-50
2021/07/08 10:02:01;;;;;;;19.60;7.43;;;819.20;1152.00;;;;;;5032904;28;20018;-51
2021/07/08 10:04:28;;;;;;;19.13;7.28;;;819.20;1177.60;;;;;;5033273;28;20387;-51
2021/07/08 10:06:54;;;;;;;15.57;7.00;;;819.20;1177.60;;;;;;5032793;28;20474;-51
2021/07/08 10:09:22;;;;;;;24.40;6.47;;;819.20;1177.60;;;;;;5033161;28;20062;-52
2021/07/08 10:11:50;;;;;;;16.05;6.70;;;819.20;1126.40;;;;;;5033089;28;20029;-51
2021/07/08 10:14:17;;;;;;;24.45;7.50;;;819.20;1152.00;;;;;;5033017;28;20478;-50
2021/07/08 10:16:51;;;;;;;20.75;10.25;;;819.20;1152.00;;;;;;5033190;28;20546;-51
2021/07/08 10:19:22;;;;;;;13.43;6.63;;;819.20;1152.00;;;;;;5033481;28;20022;-50
2021/07/08 10:21:50;;;;;;;13.00;6.57;;;819.20;1152.00;;;;;;5033799;28;20026;-50
2021/07/08 10:24:17;;;;;;;12.18;6.47;;;819.20;1152.00;;;;;;5033352;28;20033;-51
2021/07/08 10:26:45;;;;;;;42.40;8.18;;;819.20;1152.00;;;;;;5033490;28;20056;-50
2021/07/08 10:29:12;;;;;;;22.45;7.15;;;819.20;1152.00;;;;;;5033162;28;20087;-50
2021/07/08 10:31:46;;;;;;;38.40;6.80;;;819.20;1152.00;;;;;;5033067;28;20470;-50
2021/07/08 10:34:17;;;;;;;41.88;6.68;;;819.20;1152.00;;;;;;5033180;28;20028;-63
2021/07/08 10:36:54;;;;;;;45.20;8.50;;;819.30;1152.00;;;;;;5033337;28;20021;-51
2021/07/08 10:39:22;;;;;;;38.78;7.53;;;819.30;1152.00;;;;;;5033643;28;20029;-51
2021/07/08 10:41:56;;;;;;;37.90;7.57;;;819.30;1152.00;;;;;;5033271;28;20488;-50
2021/07/08 10:44:34;;;;;;;39.47;7.35;;;819.30;1152.00;;;;;;5036657;28;20030;-51
2021/07/08 10:47:02;;;;;;;168.25;14.35;;;819.30;1152.00;;;;;;5036884;28;20049;-50
2021/07/08 10:49:41;;;;;;;69.90;8.68;;;819.40;1100.80;;;;;;5036094;28;20026;-62
2021/07/08 10:52:08;;;;;;;60.30;8.32;;;819.40;1126.40;;;;;;5035663;28;20448;-51
2021/07/08 10:54:34;;;;;;;65.30;8.75;;;819.50;1152.00;;;;;;5036108;28;20017;-51
2021/07/08 10:57:02;;;;;;;65.75;9.23;;;819.50;1126.40;;;;;;5036134;28;20029;-61
2021/07/08 10:59:41;;;;;;;56.15;8.18;;;819.60;1126.40;;;;;;5036079;28;20048;-50
2021/07/08 11:02:07;;;;;;;54.80;8.63;;;819.60;1126.40;;;;;;5034892;28;20021;-51
2021/07/08 11:04:50;;;;;;;26.95;7.68;;;819.60;1152.00;;;;;;5035904;28;20028;-50
2021/07/08 11:07:20;;;;;;;31.67;8.38;;;819.60;1126.40;;;;;;5033261;28;20021;-49
2021/07/08 11:09:56;;;;;;;19.38;6.57;;;819.50;1152.00;;;;;;5035764;28;20055;-51
2021/07/08 11:12:32;;;;;;;20.58;7.43;;;819.50;1126.40;;;;;;5033978;28;20033;-52
2021/07/08 11:14:59;;;;;;;21.95;7.03;;;819.50;1152.00;;;;;;5033534;28;20095;-50
2021/07/08 11:17:25;;;;;;;14.88;6.20;;;819.60;1177.60;;;;;;5036068;28;20017;-50
2021/07/08 11:19:53;;;;;;;10.05;5.85;;;819.60;1126.40;;;;;;5035679;28;20030;-50
2021/07/08 11:22:21;;;;;;;19.58;5.95;;;819.60;1126.40;;;;;;5035410;28;20022;-51
2021/07/08 11:24:51;;;;;;;14.70;6.68;;;819.70;1126.40;;;;;;5035424;28;20024;-51
2021/07/08 11:27:35;;;;;;;14.52;6.00;;;819.70;1126.40;;;;;;5035732;28;20033;-50
2021/07/08 11:30:25;;;;;;;23.60;6.65;;;819.70;1126.40;;;;;;5036468;28;20022;-49
2021/07/08 11:32:59;;;;;;;16.80;6.30;;;819.70;1126.40;;;;;;5035637;28;20091;-50
2021/07/08 11:35:35;;;;;;;12.23;5.47;;;819.70;1126.40;;;;;;5035467;28;20025;-51
2021/07/08 11:38:07;;;;;;;21.17;5.63;;;819.70;1126.40;;;;;;5035604;28;20445;-51
2021/07/08 11:40:39;;;;;;;16.47;6.10;;;819.70;1126.40;;;;;;5035628;28;20081;-51
2021/07/08 11:43:19;;;;;;;21.00;6.35;;;819.80;1126.40;;;;;;5035676;28;20385;-51
2021/07/08 11:45:46;;;;;;;27.33;6.70;;;819.70;1126.40;;;;;;5036221;28;20026;-50
2021/07/08 11:48:21;;;;;;;32.15;6.95;;;819.90;1100.80;;;;;;5035622;28;20022;-51
2021/07/08 11:50:49;;;;;;;22.20;6.82;;;819.90;1100.80;;;;;;5034974;28;20028;-51
2021/07/08 11:53:20;;;;;;;15.07;6.43;;;819.90;1126.40;;;;;;5035271;28;20109;-51
2021/07/08 11:55:48;;;;;;;22.77;6.10;;;819.90;1100.80;;;;;;5016160;28;20014;-51
2021/07/08 11:58:21;;;;;;;26.25;6.25;;;819.90;1100.80;;;;;;5035059;28;20083;-50
2021/07/08 12:00:48;;;;;;;26.05;7.03;;;819.90;1100.80;;;;;;5035071;28;20060;-62
2021/07/08 12:03:47;;;;;;;48.05;7.45;;;819.90;1100.80;;;;;;5035263;28;20037;-52
2021/07/08 12:06:17;;;;;;;31.13;7.00;;;819.90;1100.80;;;;;;5035036;28;20112;-51